Exchange, West Virginia
Current Conditions -  °F | °C
As of 3:35 AM on Sunday 26 Oct 2014 (Local Time) from KW22 Reporting Station
Scattered Clouds Scattered Clouds  
Wind Chill: 13°   Ceiling: Unl
Heat Index: 13°   Visibility: 10mi
Dew Point:   Wind: 10mph
Humidity: 54%   Direction: 290°WNW
Pressure: 29.86"   Gusts: 17mph
Location:  38.77°N, 80.72°W
Report Text: KW22 260735Z AUTO 29009G15KT 250V320 10SM SCT050 13/04 A2986 RMK AO2
Loading
Personal Weather Stations






























Interactive Weather Map
Tropical Storm Tracking
New forecast layout! Learn more

10-Day Weather Forecast

Advertisements
Track Severe Weather on mobile